Time;durP1;ratioP1;P1;durP2;ratioP2;P2;SDS_P1;SDS_P2;PMS_P1;PMS_P2;Temp;Humidity;BMP_temperature;BMP_pressure;BME280_temperature;BME280_humidity;BME280_pressure;Samples;Min_cycle;Max_cycle;Signal;HPM_P1;HPM_P2
2023/09/16 00:00:58;;;;;;;3.58;1.10;;;18.30;93.20;;;;;;5028465;28;20678;-63
2023/09/16 00:03:27;;;;;;;3.30;1.42;;;18.20;93.20;;;;;;5029960;28;20194;-63
2023/09/16 00:05:54;;;;;;;1.73;1.15;;;18.10;93.20;;;;;;5014062;28;20227;-63
2023/09/16 00:08:21;;;;;;;4.18;1.30;;;18.10;93.30;;;;;;5032532;28;20245;-63
2023/09/16 00:10:49;;;;;;;3.17;1.20;;;18.00;93.30;;;;;;5032732;28;20214;-63
2023/09/16 00:13:16;;;;;;;3.03;1.10;;;18.00;93.40;;;;;;5014470;28;20202;-62
2023/09/16 00:15:48;;;;;;;2.55;1.13;;;18.00;93.40;;;;;;5014664;28;20206;-64
2023/09/16 00:18:15;;;;;;;3.22;1.52;;;18.00;93.40;;;;;;5028291;28;20194;-64
2023/09/16 00:20:44;;;;;;;1.70;1.13;;;17.90;93.40;;;;;;5029307;28;20557;-64
2023/09/16 00:23:11;;;;;;;4.45;1.38;;;17.90;93.50;;;;;;5005631;28;20512;-63
2023/09/16 00:25:38;;;;;;;4.63;1.50;;;17.90;93.50;;;;;;5029572;28;20719;-63
2023/09/16 00:28:07;;;;;;;2.78;1.30;;;18.00;93.50;;;;;;5024972;28;20283;-63
2023/09/16 00:30:35;;;;;;;1.73;1.08;;;17.90;93.50;;;;;;5029601;28;20198;-63
2023/09/16 00:33:03;;;;;;;1.92;1.13;;;17.90;93.60;;;;;;5013606;28;20285;-63
2023/09/16 00:35:30;;;;;;;2.47;1.33;;;17.90;93.60;;;;;;5026318;28;20739;-63
2023/09/16 00:38:00;;;;;;;1.63;1.15;;;17.80;93.60;;;;;;5029083;28;20290;-64
2023/09/16 00:40:27;;;;;;;2.08;1.35;;;17.80;93.70;;;;;;5033783;28;20209;-64
2023/09/16 00:42:54;;;;;;;3.53;1.05;;;17.70;93.70;;;;;;5014481;28;20277;-64
2023/09/16 00:45:21;;;;;;;2.25;1.02;;;17.70;93.80;;;;;;5032542;28;20252;-64
2023/09/16 00:47:48;;;;;;;3.97;1.02;;;17.70;93.80;;;;;;5031559;28;20558;-64
2023/09/16 00:50:17;;;;;;;3.42;1.23;;;17.70;93.90;;;;;;5013105;28;20216;-65
2023/09/16 00:52:51;;;;;;;3.65;1.40;;;17.70;93.80;;;;;;5028357;28;20245;-62
2023/09/16 00:55:20;;;;;;;2.63;1.42;;;17.70;93.80;;;;;;5014023;28;20217;-63
2023/09/16 00:57:51;;;;;;;3.75;1.30;;;17.60;93.80;;;;;;5026771;28;20285;-63
2023/09/16 01:00:18;;;;;;;3.38;1.40;;;17.60;93.90;;;;;;5006599;28;20195;-63
2023/09/16 01:02:46;;;;;;;1.77;1.20;;;17.60;93.90;;;;;;5024635;28;20198;-63
2023/09/16 01:05:15;;;;;;;2.65;1.30;;;17.50;93.90;;;;;;5022478;28;20771;-63
2023/09/16 01:07:42;;;;;;;2.45;1.50;;;17.40;94.00;;;;;;5030958;28;20202;-64
2023/09/16 01:10:11;;;;;;;2.70;1.40;;;17.50;94.10;;;;;;5031397;28;20550;-64
2023/09/16 01:12:40;;;;;;;2.53;1.35;;;17.50;94.10;;;;;;5014139;28;20684;-61
2023/09/16 01:15:09;;;;;;;1.67;1.05;;;17.40;94.10;;;;;;5028416;28;20219;-63
2023/09/16 01:17:43;;;;;;;4.22;1.50;;;17.40;94.10;;;;;;5012825;28;20272;-63
2023/09/16 01:20:13;;;;;;;2.78;1.08;;;17.40;94.10;;;;;;5013042;28;20666;-62
2023/09/16 01:22:44;;;;;;;2.28;1.08;;;17.40;94.20;;;;;;5013635;28;20252;-62
2023/09/16 01:25:14;;;;;;;2.13;1.20;;;17.50;94.30;;;;;;5031726;28;20201;-63
2023/09/16 01:27:42;;;;;;;2.15;1.15;;;17.50;94.20;;;;;;5032123;28;20186;-62
2023/09/16 01:30:11;;;;;;;4.45;1.45;;;17.40;94.20;;;;;;5024345;28;20211;-64
2023/09/16 01:32:46;;;;;;;1.58;1.05;;;17.40;94.30;;;;;;5013067;28;20253;-63
2023/09/16 01:35:16;;;;;;;4.63;1.30;;;17.30;94.30;;;;;;5029326;28;20217;-63
2023/09/16 01:37:46;;;;;;;3.17;1.33;;;17.20;94.40;;;;;;5028865;28;20206;-62
2023/09/16 01:40:16;;;;;;;1.90;1.45;;;17.20;94.50;;;;;;5012343;28;20207;-63
2023/09/16 01:42:44;;;;;;;1.58;1.00;;;17.20;94.50;;;;;;5030630;28;20194;-63
2023/09/16 01:45:12;;;;;;;2.25;1.23;;;17.10;94.60;;;;;;5028749;28;20750;-63
2023/09/16 01:47:41;;;;;;;1.13;1.03;;;17.10;94.60;;;;;;5028717;28;20293;-63
2023/09/16 01:50:08;;;;;;;5.38;1.40;;;17.20;94.70;;;;;;5021378;28;20313;-63
2023/09/16 01:52:35;;;;;;;2.28;1.17;;;17.20;94.80;;;;;;5011942;28;20206;-63
2023/09/16 01:55:03;;;;;;;3.70;1.80;;;17.20;94.70;;;;;;5029815;28;20685;-62
2023/09/16 01:57:34;;;;;;;2.95;1.45;;;17.20;94.80;;;;;;5030856;28;20198;-64
2023/09/16 02:00:01;;;;;;;2.83;1.00;;;17.20;94.80;;;;;;5014976;28;20301;-63
2023/09/16 02:02:29;;;;;;;3.13;1.30;;;17.20;95.20;;;;;;5030253;28;20284;-63
2023/09/16 02:04:57;;;;;;;2.30;1.10;;;17.30;94.90;;;;;;5027554;28;20809;-63
2023/09/16 02:07:24;;;;;;;3.45;1.45;;;17.20;94.80;;;;;;5012185;28;20614;-64
2023/09/16 02:09:53;;;;;;;2.53;1.30;;;17.20;94.90;;;;;;5028690;28;20735;-63
2023/09/16 02:12:20;;;;;;;3.05;1.40;;;17.10;94.90;;;;;;5011362;28;20205;-63
2023/09/16 02:14:51;;;;;;;2.55;1.10;;;17.00;95.00;;;;;;5009445;28;20206;-63
2023/09/16 02:17:19;;;;;;;3.72;1.15;;;17.00;95.00;;;;;;5003707;28;20249;-63
2023/09/16 02:19:46;;;;;;;4.38;1.33;;;16.90;95.10;;;;;;5010574;28;20221;-64
2023/09/16 02:22:13;;;;;;;3.28;1.10;;;16.80;95.20;;;;;;5011094;28;20194;-62
2023/09/16 02:24:40;;;;;;;1.85;1.05;;;16.80;95.20;;;;;;5025133;28;20264;-62
2023/09/16 02:27:10;;;;;;;1.63;1.17;;;16.90;95.30;;;;;;5009470;28;20222;-64
2023/09/16 02:29:36;;;;;;;2.25;1.40;;;16.90;95.30;;;;;;5025956;28;20295;-62
2023/09/16 02:32:05;;;;;;;1.55;1.15;;;16.90;95.30;;;;;;5029884;28;20222;-63
2023/09/16 02:34:36;;;;;;;3.45;1.10;;;16.90;95.30;;;;;;5028236;28;20194;-63
2023/09/16 02:37:03;;;;;;;1.50;1.02;;;16.90;95.30;;;;;;5008093;28;20218;-63
2023/09/16 02:39:31;;;;;;;2.22;1.40;;;16.90;95.30;;;;;;5011912;28;20237;-63
2023/09/16 02:41:59;;;;;;;2.15;1.25;;;16.90;95.30;;;;;;5029636;28;20205;-62
2023/09/16 02:44:26;;;;;;;1.50;1.20;;;16.90;95.30;;;;;;5012561;28;20211;-63
2023/09/16 02:46:54;;;;;;;2.50;1.20;;;16.80;95.40;;;;;;5029659;28;20201;-63
2023/09/16 02:49:23;;;;;;;2.75;1.23;;;16.80;95.40;;;;;;5010549;28;20227;-63
2023/09/16 02:51:51;;;;;;;1.77;1.00;;;16.80;95.50;;;;;;5011178;28;20210;-63
2023/09/16 02:54:18;;;;;;;2.08;1.25;;;16.70;95.50;;;;;;5030076;28;20198;-62
2023/09/16 02:56:45;;;;;;;1.45;0.93;;;16.70;95.50;;;;;;5012258;28;20199;-64
2023/09/16 02:59:13;;;;;;;2.50;1.13;;;16.70;95.60;;;;;;5024634;28;20187;-63
2023/09/16 03:01:43;;;;;;;2.75;1.20;;;16.70;95.60;;;;;;5012807;28;20206;-63
2023/09/16 03:04:10;;;;;;;4.90;1.20;;;16.70;95.70;;;;;;5010230;28;20256;-63
2023/09/16 03:06:38;;;;;;;1.58;1.02;;;16.70;95.70;;;;;;5011030;28;20230;-63
2023/09/16 03:09:05;;;;;;;2.33;1.57;;;16.70;95.70;;;;;;5023203;28;20213;-63
2023/09/16 03:11:33;;;;;;;1.35;1.15;;;16.70;95.70;;;;;;5029924;28;20220;-63
2023/09/16 03:14:01;;;;;;;2.88;1.33;;;16.70;95.70;;;;;;5013506;28;20657;-63
2023/09/16 03:16:28;;;;;;;2.40;1.23;;;16.70;95.70;;;;;;5012250;28;20675;-62
2023/09/16 03:18:58;;;;;;;3.70;0.98;;;16.70;95.70;;;;;;5011067;28;20202;-63
2023/09/16 03:21:27;;;;;;;1.55;0.98;;;16.60;95.80;;;;;;5012184;28;20217;-64
2023/09/16 03:24:02;;;;;;;1.60;1.20;;;16.60;95.80;;;;;;5013475;28;20492;-62
2023/09/16 03:26:33;;;;;;;3.00;1.40;;;16.50;95.80;;;;;;5012069;28;20213;-63
2023/09/16 03:29:00;;;;;;;4.20;1.45;;;16.50;95.80;;;;;;5028624;28;20296;-63
2023/09/16 03:31:29;;;;;;;2.03;1.48;;;16.50;95.90;;;;;;5022092;28;20507;-63
2023/09/16 03:34:00;;;;;;;3.50;1.30;;;16.50;95.90;;;;;;5009939;28;20582;-63
2023/09/16 03:36:28;;;;;;;2.25;1.15;;;16.40;96.00;;;;;;5010081;28;20210;-63
2023/09/16 03:38:55;;;;;;;5.32;1.67;;;16.40;96.00;;;;;;5024656;28;20203;-63
2023/09/16 03:41:24;;;;;;;2.97;1.63;;;16.40;96.10;;;;;;5014021;28;20268;-63
2023/09/16 03:43:56;;;;;;;3.55;1.35;;;16.40;96.10;;;;;;5012231;28;20205;-63
2023/09/16 03:46:24;;;;;;;4.60;1.35;;;16.40;96.10;;;;;;5013521;28;20703;-63
2023/09/16 03:48:52;;;;;;;1.90;1.30;;;16.40;96.20;;;;;;5012346;28;20317;-63
2023/09/16 03:51:21;;;;;;;2.28;1.42;;;16.30;96.20;;;;;;5013764;28;20206;-64
2023/09/16 03:53:48;;;;;;;2.55;1.45;;;16.30;96.30;;;;;;5015823;28;20610;-64
2023/09/16 03:56:15;;;;;;;2.53;1.33;;;16.30;96.30;;;;;;5015631;28;20627;-63
2023/09/16 03:58:44;;;;;;;3.05;1.63;;;16.20;96.40;;;;;;5004554;28;20232;-64
2023/09/16 04:01:11;;;;;;;4.43;1.70;;;16.20;96.40;;;;;;5008054;28;20654;-63
2023/09/16 04:03:40;;;;;;;2.53;1.20;;;16.20;96.50;;;;;;5007495;28;21024;-63
2023/09/16 04:06:07;;;;;;;2.45;1.30;;;16.20;96.50;;;;;;5031375;28;20233;-63
2023/09/16 04:08:35;;;;;;;3.23;1.30;;;16.10;96.60;;;;;;5032348;28;20610;-63
2023/09/16 04:11:02;;;;;;;1.88;1.00;;;16.10;96.70;;;;;;5032529;28;20221;-62
2023/09/16 04:13:29;;;;;;;1.80;1.20;;;16.10;97.00;;;;;;5031531;28;20657;-62
2023/09/16 04:15:57;;;;;;;2.13;1.45;;;16.20;96.70;;;;;;5027136;28;20670;-64
2023/09/16 04:18:26;;;;;;;3.55;1.20;;;16.10;96.60;;;;;;5014422;28;20229;-63
2023/09/16 04:20:55;;;;;;;1.63;1.20;;;16.10;96.70;;;;;;5023856;28;20222;-64
2023/09/16 04:23:22;;;;;;;3.10;1.45;;;16.00;96.70;;;;;;5015822;28;20223;-65
2023/09/16 04:25:54;;;;;;;2.50;1.30;;;16.10;96.80;;;;;;5014663;28;20315;-63
2023/09/16 04:28:22;;;;;;;3.65;1.48;;;16.10;96.80;;;;;;5030354;28;20224;-63
2023/09/16 04:30:50;;;;;;;5.27;1.57;;;16.10;96.80;;;;;;5030979;28;20222;-64
2023/09/16 04:33:21;;;;;;;2.33;1.40;;;16.10;96.80;;;;;;5014374;28;20282;-63
2023/09/16 04:35:51;;;;;;;2.70;1.30;;;16.10;96.80;;;;;;5010696;28;20323;-63
2023/09/16 04:38:19;;;;;;;2.45;1.48;;;16.10;96.80;;;;;;5013276;28;20231;-63
2023/09/16 04:40:48;;;;;;;1.60;1.10;;;16.10;96.90;;;;;;5010202;28;20259;-63
2023/09/16 04:43:16;;;;;;;1.50;1.20;;;16.00;96.90;;;;;;5014649;28;20206;-63
2023/09/16 04:45:44;;;;;;;1.55;1.33;;;16.00;96.90;;;;;;5015216;28;20216;-63
2023/09/16 04:48:14;;;;;;;2.20;1.10;;;16.10;96.90;;;;;;5013726;28;20207;-63
2023/09/16 04:50:45;;;;;;;3.03;1.45;;;16.10;96.90;;;;;;5012594;28;20716;-64
2023/09/16 04:53:13;;;;;;;3.93;1.30;;;16.10;97.00;;;;;;5013740;28;20208;-64
2023/09/16 04:55:42;;;;;;;3.28;1.27;;;16.10;97.00;;;;;;5013803;28;20218;-64
2023/09/16 04:58:09;;;;;;;1.23;1.13;;;16.10;97.00;;;;;;5010580;28;20208;-64
2023/09/16 05:00:38;;;;;;;3.43;1.30;;;16.20;97.00;;;;;;5025165;28;20209;-63
2023/09/16 05:03:07;;;;;;;4.53;1.50;;;16.20;96.90;;;;;;5031158;28;20196;-63
2023/09/16 05:05:37;;;;;;;1.67;1.10;;;16.30;96.90;;;;;;5013370;28;20226;-63
2023/09/16 05:08:07;;;;;;;2.80;1.00;;;16.30;96.80;;;;;;5013971;28;20285;-63
2023/09/16 05:10:34;;;;;;;3.10;1.00;;;16.30;96.80;;;;;;5006857;28;20245;-63
2023/09/16 05:13:01;;;;;;;5.03;1.40;;;16.30;96.80;;;;;;5024626;28;20200;-63
2023/09/16 05:15:29;;;;;;;2.53;1.10;;;16.30;96.80;;;;;;5005616;28;20214;-63
2023/09/16 05:17:57;;;;;;;2.50;1.30;;;16.30;96.80;;;;;;5012346;28;20209;-63
2023/09/16 05:20:24;;;;;;;1.43;1.17;;;16.40;96.80;;;;;;5002786;28;20229;-64
2023/09/16 05:22:52;;;;;;;4.35;1.27;;;16.40;96.80;;;;;;5014552;28;20625;-64
2023/09/16 05:25:25;;;;;;;2.17;1.00;;;16.40;96.60;;;;;;5004088;28;20238;-63
2023/09/16 05:27:52;;;;;;;2.20;1.03;;;16.50;96.60;;;;;;5031766;28;20201;-63
2023/09/16 05:30:19;;;;;;;2.53;1.00;;;16.50;96.50;;;;;;5011947;28;20218;-64
2023/09/16 05:32:46;;;;;;;2.70;1.27;;;16.50;96.80;;;;;;5015139;28;20213;-63
2023/09/16 05:35:13;;;;;;;1.83;1.13;;;16.50;96.40;;;;;;5029008;28;20201;-64
2023/09/16 05:37:41;;;;;;;2.10;1.02;;;16.50;96.40;;;;;;5015039;28;20216;-63
2023/09/16 05:40:09;;;;;;;1.88;1.10;;;16.60;96.40;;;;;;5010931;28;20193;-62
2023/09/16 05:42:38;;;;;;;2.57;1.10;;;16.60;96.40;;;;;;5031319;28;20209;-64
2023/09/16 05:45:06;;;;;;;2.50;1.30;;;16.60;96.40;;;;;;5029378;28;20217;-63
2023/09/16 05:47:33;;;;;;;1.87;1.30;;;16.60;96.30;;;;;;5030456;28;20193;-63
2023/09/16 05:50:00;;;;;;;1.43;1.13;;;16.60;96.30;;;;;;5011941;28;20572;-62
2023/09/16 05:52:27;;;;;;;2.90;1.30;;;16.60;96.30;;;;;;5030230;28;20206;-63
2023/09/16 05:54:55;;;;;;;1.90;1.30;;;16.50;96.20;;;;;;5013209;28;20209;-64
2023/09/16 05:57:22;;;;;;;3.40;1.50;;;16.50;96.30;;;;;;5013567;28;20274;-62
2023/09/16 05:59:51;;;;;;;2.60;1.58;;;16.50;96.30;;;;;;5016435;28;20208;-64
2023/09/16 06:02:19;;;;;;;3.17;1.70;;;16.40;96.30;;;;;;5010167;28;20212;-62
2023/09/16 06:04:46;;;;;;;2.10;1.63;;;16.40;96.30;;;;;;5029192;28;20239;-64
2023/09/16 06:07:14;;;;;;;4.20;1.70;;;16.50;96.40;;;;;;5012584;28;20259;-63
2023/09/16 06:09:41;;;;;;;2.27;1.33;;;16.40;96.70;;;;;;5007711;28;20251;-63
2023/09/16 06:12:08;;;;;;;2.63;1.60;;;16.40;96.40;;;;;;5011863;28;20268;-63
2023/09/16 06:14:39;;;;;;;8.57;1.90;;;16.40;96.40;;;;;;5012383;28;20300;-63
2023/09/16 06:17:07;;;;;;;3.20;1.57;;;16.40;96.40;;;;;;5008680;28;20215;-63
2023/09/16 06:19:35;;;;;;;2.30;1.50;;;16.30;96.50;;;;;;5027111;28;20271;-62
2023/09/16 06:22:02;;;;;;;2.87;1.63;;;16.30;96.50;;;;;;5008769;28;20300;-63
2023/09/16 06:24:30;;;;;;;1.63;1.13;;;16.40;96.70;;;;;;5012718;28;21030;-63
2023/09/16 06:26:58;;;;;;;3.60;1.50;;;16.40;96.80;;;;;;5011185;28;20530;-63
2023/09/16 06:29:25;;;;;;;4.60;1.60;;;16.50;96.80;;;;;;5011612;28;20219;-63
2023/09/16 06:31:52;;;;;;;1.60;1.50;;;16.50;96.80;;;;;;5028828;28;20224;-63
2023/09/16 06:34:21;;;;;;;2.20;1.60;;;16.40;96.90;;;;;;5023591;28;20198;-63
2023/09/16 06:36:50;;;;;;;1.60;1.50;;;16.40;96.80;;;;;;5027638;28;20197;-64
2023/09/16 06:39:17;;;;;;;2.17;1.17;;;16.40;96.90;;;;;;5030152;28;20214;-64
2023/09/16 06:41:44;;;;;;;3.78;1.52;;;16.50;96.90;;;;;;5029804;28;20366;-63
2023/09/16 06:44:14;;;;;;;1.63;1.10;;;16.60;97.00;;;;;;5012355;28;20294;-62
2023/09/16 06:46:43;;;;;;;1.87;1.30;;;16.70;97.00;;;;;;5015027;28;20570;-63
2023/09/16 06:49:10;;;;;;;1.67;1.43;;;16.70;97.00;;;;;;5020069;28;20543;-63
2023/09/16 06:51:38;;;;;;;2.03;1.37;;;16.70;97.00;;;;;;5027015;28;20239;-63
2023/09/16 06:54:06;;;;;;;2.23;1.50;;;16.80;97.10;;;;;;5029348;28;20189;-63
2023/09/16 06:56:33;;;;;;;1.60;1.50;;;16.80;97.20;;;;;;5029713;28;20200;-63
2023/09/16 06:59:01;;;;;;;1.88;1.42;;;16.90;97.10;;;;;;5023934;28;20287;-65
2023/09/16 07:01:28;;;;;;;3.60;1.40;;;16.80;97.00;;;;;;5027298;28;20609;-63
2023/09/16 07:03:56;;;;;;;2.50;2.03;;;16.90;97.00;;;;;;5028150;28;20208;-62
2023/09/16 07:06:23;;;;;;;4.13;2.20;;;16.90;96.90;;;;;;5010043;28;20228;-63
2023/09/16 07:08:51;;;;;;;4.20;2.33;;;17.00;97.00;;;;;;5022802;28;20209;-63
2023/09/16 07:11:18;;;;;;;2.23;1.87;;;17.00;97.00;;;;;;5021396;28;20269;-64
2023/09/16 07:13:45;;;;;;;2.22;1.65;;;17.10;97.10;;;;;;5034506;28;20277;-64
2023/09/16 07:16:13;;;;;;;1.58;1.48;;;17.10;97.10;;;;;;5034437;28;20210;-63
2023/09/16 07:18:40;;;;;;;2.63;1.70;;;17.10;97.00;;;;;;5018491;28;20734;-63
2023/09/16 07:21:07;;;;;;;3.80;1.85;;;17.10;97.00;;;;;;5034333;28;20668;-64
2023/09/16 07:23:37;;;;;;;2.03;1.50;;;17.20;96.90;;;;;;5035469;28;20229;-64
2023/09/16 07:26:05;;;;;;;3.78;1.60;;;17.20;97.00;;;;;;5036257;28;20290;-63
2023/09/16 07:31:24;;;;;;;4.07;1.60;;;17.40;97.20;;;;;;5020072;28;20224;-63
2023/09/16 07:33:52;;;;;;;2.28;2.08;;;17.50;97.20;;;;;;5035834;28;20212;-63
2023/09/16 07:36:21;;;;;;;2.55;1.70;;;17.60;97.20;;;;;;5032378;28;20204;-63
2023/09/16 07:38:54;;;;;;;4.53;1.60;;;17.70;97.10;;;;;;5035256;28;20205;-64
2023/09/16 07:41:24;;;;;;;4.80;1.60;;;17.70;97.30;;;;;;5035936;28;20669;-63
2023/09/16 07:43:53;;;;;;;2.15;1.60;;;17.80;96.90;;;;;;5036496;28;20205;-63
2023/09/16 07:46:26;;;;;;;3.22;1.60;;;17.90;96.80;;;;;;5036492;28;20281;-63
2023/09/16 07:48:55;;;;;;;1.65;1.27;;;18.00;96.80;;;;;;5027539;28;20244;-62
2023/09/16 07:51:22;;;;;;;2.10;1.70;;;18.00;96.80;;;;;;5029531;28;20211;-62
2023/09/16 07:53:49;;;;;;;2.08;1.42;;;18.10;96.90;;;;;;5030306;28;20212;-64
2023/09/16 07:56:18;;;;;;;1.70;1.60;;;18.40;96.90;;;;;;5029290;28;20715;-63
2023/09/16 07:58:46;;;;;;;2.67;1.77;;;19.70;96.20;;;;;;5027383;28;20195;-64
2023/09/16 08:01:13;;;;;;;3.65;2.35;;;21.30;94.00;;;;;;5028849;28;20197;-64
2023/09/16 08:03:42;;;;;;;3.83;2.00;;;22.70;91.30;;;;;;5027897;28;20554;-65
2023/09/16 08:06:09;;;;;;;2.25;1.67;;;23.70;90.20;;;;;;5027258;28;20313;-63
2023/09/16 08:08:36;;;;;;;1.80;1.70;;;24.80;87.40;;;;;;5030706;28;20202;-63
2023/09/16 08:11:04;;;;;;;2.90;2.00;;;25.60;85.10;;;;;;5026715;28;20207;-63
2023/09/16 08:13:31;;;;;;;2.60;1.70;;;26.00;80.60;;;;;;5029126;28;20767;-63
2023/09/16 08:15:59;;;;;;;1.80;1.65;;;26.20;78.30;;;;;;5035250;28;20202;-63
2023/09/16 08:18:26;;;;;;;3.33;2.65;;;26.60;77.90;;;;;;5031599;28;20199;-64
2023/09/16 08:20:53;;;;;;;1.38;1.27;;;27.00;75.10;;;;;;5029077;28;20273;-64
2023/09/16 08:23:20;;;;;;;2.88;1.80;;;26.40;74.50;;;;;;5033092;28;20199;-63
2023/09/16 08:25:47;;;;;;;3.25;1.85;;;25.40;76.50;;;;;;5026395;28;20252;-63
2023/09/16 08:28:14;;;;;;;1.73;1.63;;;24.20;78.90;;;;;;5030091;28;20670;-64
2023/09/16 08:30:42;;;;;;;2.00;1.83;;;23.30;81.30;;;;;;5026475;28;20301;-64
2023/09/16 08:33:10;;;;;;;3.97;2.00;;;22.70;82.40;;;;;;5026648;28;20194;-63
2023/09/16 08:35:37;;;;;;;2.42;1.77;;;22.50;83.90;;;;;;5031805;28;20198;-63
2023/09/16 08:38:05;;;;;;;3.70;2.17;;;23.10;84.00;;;;;;5013659;28;20195;-64
2023/09/16 08:40:32;;;;;;;2.60;1.67;;;24.00;81.80;;;;;;5031653;28;20221;-63
2023/09/16 08:43:11;;;;;;;6.95;2.20;;;25.10;79.80;;;;;;5029753;28;20190;-62
2023/09/16 08:45:54;;;;;;;4.18;1.92;;;25.60;77.60;;;;;;5031948;28;20183;-63
2023/09/16 08:48:26;;;;;;;4.32;2.03;;;24.60;77.80;;;;;;5030721;28;20249;-63
2023/09/16 08:50:57;;;;;;;6.93;2.80;;;23.30;79.80;;;;;;5030780;28;20681;-64
2023/09/16 08:53:26;;;;;;;5.55;2.63;;;22.40;82.40;;;;;;5031852;28;20273;-63
2023/09/16 08:55:55;;;;;;;3.00;2.17;;;21.80;84.90;;;;;;5015120;28;20199;-63
2023/09/16 08:58:22;;;;;;;6.72;3.25;;;21.30;86.90;;;;;;5028622;28;20608;-63
2023/09/16 09:00:51;;;;;;;2.67;2.38;;;20.90;88.30;;;;;;5028251;28;20195;-63
2023/09/16 09:03:18;;;;;;;2.78;2.33;;;20.60;89.40;;;;;;5030533;28;20277;-63
2023/09/16 09:05:48;;;;;;;4.07;1.98;;;20.40;90.10;;;;;;5031004;28;20241;-64
2023/09/16 09:08:15;;;;;;;2.30;1.58;;;20.40;90.40;;;;;;5030949;28;20195;-62
2023/09/16 09:10:42;;;;;;;3.90;1.92;;;20.40;90.60;;;;;;5014817;28;20218;-63
2023/09/16 09:13:13;;;;;;;3.78;1.98;;;20.40;91.10;;;;;;5031517;28;20648;-64
2023/09/16 09:15:41;;;;;;;2.00;1.80;;;20.40;91.20;;;;;;5021861;28;20600;-64
2023/09/16 09:18:12;;;;;;;3.70;2.00;;;20.40;91.40;;;;;;5013249;28;20210;-65
2023/09/16 09:20:39;;;;;;;2.88;2.08;;;21.30;91.40;;;;;;5031176;28;20484;-64
2023/09/16 09:23:10;;;;;;;2.28;1.80;;;22.00;90.40;;;;;;5031138;28;20570;-65
2023/09/16 09:25:37;;;;;;;3.25;2.00;;;21.90;90.20;;;;;;5027899;28;20541;-65
2023/09/16 09:28:05;;;;;;;2.75;1.60;;;22.60;90.20;;;;;;5031136;28;20198;-64
2023/09/16 09:30:32;;;;;;;2.35;1.63;;;23.80;88.60;;;;;;5024357;28;20257;-65
2023/09/16 09:33:01;;;;;;;1.60;1.50;;;25.00;86.00;;;;;;5029761;28;20205;-64
2023/09/16 09:35:29;;;;;;;3.78;2.05;;;25.30;83.60;;;;;;5017973;28;20238;-65
2023/09/16 09:37:57;;;;;;;2.33;1.80;;;25.50;82.80;;;;;;5026110;28;20198;-64
2023/09/16 09:40:28;;;;;;;2.05;1.73;;;26.10;81.50;;;;;;5010083;28;20202;-64
2023/09/16 09:42:55;;;;;;;2.05;1.80;;;26.60;79.30;;;;;;5031171;28;20218;-65
2023/09/16 09:45:27;;;;;;;1.98;1.73;;;26.70;78.00;;;;;;5027260;28;20216;-64
2023/09/16 09:47:54;;;;;;;4.28;1.50;;;26.70;77.50;;;;;;5030237;28;20187;-66
2023/09/16 09:50:23;;;;;;;1.75;1.65;;;26.80;76.90;;;;;;5030338;28;20198;-65
2023/09/16 09:52:52;;;;;;;2.08;1.88;;;27.10;76.40;;;;;;5027162;28;20543;-65
2023/09/16 09:55:19;;;;;;;2.00;1.80;;;27.30;75.80;;;;;;5030912;28;20685;-65
2023/09/16 09:57:50;;;;;;;3.25;1.85;;;27.50;75.00;;;;;;5031093;28;20721;-65
2023/09/16 10:00:19;;;;;;;2.60;2.08;;;27.60;74.50;;;;;;5023968;28;20205;-64
2023/09/16 10:02:47;;;;;;;1.90;1.77;;;27.70;73.30;;;;;;5021967;28;20194;-64
2023/09/16 10:05:16;;;;;;;4.18;1.70;;;27.50;72.50;;;;;;5013594;28;20253;-64
2023/09/16 10:07:44;;;;;;;4.20;2.53;;;27.60;72.20;;;;;;5031293;28;20194;-64
2023/09/16 10:10:17;;;;;;;2.10;1.70;;;27.40;71.40;;;;;;5026597;28;20206;-65
2023/09/16 10:12:45;;;;;;;2.25;1.88;;;27.20;71.20;;;;;;5031155;28;20297;-64
2023/09/16 10:15:14;;;;;;;3.58;1.63;;;27.20;71.60;;;;;;5029455;28;20202;-65
2023/09/16 10:17:42;;;;;;;1.65;1.55;;;27.40;72.00;;;;;;5013360;28;20256;-65
2023/09/16 10:20:13;;;;;;;3.42;1.88;;;27.60;71.80;;;;;;5028922;28;20205;-64
2023/09/16 10:22:40;;;;;;;2.13;1.92;;;27.60;70.90;;;;;;5031075;28;20611;-65
2023/09/16 10:25:09;;;;;;;2.10;1.90;;;27.50;70.90;;;;;;5011541;28;20210;-65
2023/09/16 10:27:45;;;;;;;2.13;1.90;;;27.30;70.80;;;;;;5027781;28;20202;-65
2023/09/16 10:30:17;;;;;;;2.10;1.90;;;27.20;71.10;;;;;;5022102;28;20586;-65
2023/09/16 10:32:45;;;;;;;1.70;1.60;;;27.10;71.40;;;;;;5008570;28;20215;-64
2023/09/16 10:35:12;;;;;;;2.40;1.83;;;27.30;71.80;;;;;;5026389;28;20260;-65
2023/09/16 10:37:42;;;;;;;2.45;2.15;;;27.30;71.90;;;;;;5027105;28;20205;-64
2023/09/16 10:40:11;;;;;;;2.58;1.77;;;27.30;70.60;;;;;;5027720;28;20195;-65
2023/09/16 10:42:40;;;;;;;1.85;1.73;;;27.00;70.30;;;;;;5028491;28;20186;-65
2023/09/16 10:45:10;;;;;;;2.28;1.92;;;26.70;70.10;;;;;;5010527;28;20194;-64
2023/09/16 10:47:39;;;;;;;2.33;1.80;;;26.80;70.90;;;;;;5026889;28;20191;-64
2023/09/16 10:50:07;;;;;;;2.58;1.40;;;26.80;71.10;;;;;;5027000;28;20221;-64
2023/09/16 10:52:41;;;;;;;2.45;2.03;;;26.90;71.30;;;;;;5010256;28;20210;-64
2023/09/16 10:55:14;;;;;;;2.17;2.00;;;26.80;70.90;;;;;;5008290;28;20288;-64
2023/09/16 10:57:51;;;;;;;2.58;2.00;;;26.50;70.90;;;;;;5003259;28;20207;-64
2023/09/16 11:00:22;;;;;;;1.80;1.70;;;26.30;70.90;;;;;;5017380;28;20199;-63
2023/09/16 11:02:58;;;;;;;2.83;1.65;;;26.30;71.70;;;;;;5024816;28;20187;-65
2023/09/16 11:05:25;;;;;;;1.80;1.58;;;26.30;71.70;;;;;;5015899;28;20304;-65
2023/09/16 11:07:53;;;;;;;1.77;1.67;;;26.30;71.30;;;;;;5027671;28;20206;-64
2023/09/16 11:10:21;;;;;;;3.35;1.92;;;26.30;70.50;;;;;;5013082;28;20187;-64
2023/09/16 11:12:49;;;;;;;1.70;1.58;;;26.20;69.50;;;;;;5000474;28;20218;-65
2023/09/16 11:15:16;;;;;;;3.25;1.92;;;26.20;69.80;;;;;;5015011;28;20642;-65
2023/09/16 11:17:44;;;;;;;2.15;1.70;;;26.10;70.20;;;;;;5024195;28;20268;-64
2023/09/16 11:20:19;;;;;;;1.83;1.73;;;26.10;70.30;;;;;;5013753;28;20195;-65
2023/09/16 11:22:50;;;;;;;1.75;1.65;;;26.10;70.50;;;;;;5026931;28;20213;-65
2023/09/16 11:25:17;;;;;;;1.65;1.40;;;26.00;70.70;;;;;;5025368;28;20198;-65
2023/09/16 11:27:46;;;;;;;2.53;1.58;;;26.10;71.40;;;;;;5028168;28;20201;-65
2023/09/16 11:30:14;;;;;;;2.15;1.77;;;26.20;71.50;;;;;;5007356;28;20926;-64
2023/09/16 11:32:42;;;;;;;1.85;1.58;;;26.30;71.30;;;;;;5009032;28;20522;-64
2023/09/16 11:35:10;;;;;;;1.80;1.70;;;26.30;70.70;;;;;;5019987;28;20550;-66
2023/09/16 11:37:38;;;;;;;1.90;1.73;;;26.20;69.70;;;;;;5019554;28;20195;-64
2023/09/16 11:40:11;;;;;;;1.70;1.60;;;26.20;70.10;;;;;;5000769;28;20202;-65
2023/09/16 11:42:41;;;;;;;1.65;1.55;;;26.20;70.40;;;;;;5006599;28;20297;-64
2023/09/16 11:45:11;;;;;;;3.97;2.03;;;26.20;70.10;;;;;;5023848;28;20327;-65
2023/09/16 11:47:38;;;;;;;2.20;2.03;;;26.20;70.10;;;;;;5027218;28;20191;-64
2023/09/16 11:50:08;;;;;;;3.28;1.55;;;26.20;70.30;;;;;;5023454;28;20214;-64
2023/09/16 11:52:39;;;;;;;1.83;1.70;;;26.20;70.30;;;;;;5005872;28;20222;-64
2023/09/16 11:55:07;;;;;;;2.83;1.88;;;26.30;70.40;;;;;;5025904;28;20474;-65
2023/09/16 11:57:34;;;;;;;2.05;1.90;;;26.30;69.90;;;;;;5026918;28;20605;-64
2023/09/16 12:00:03;;;;;;;2.05;1.88;;;26.10;69.10;;;;;;5008598;28;20264;-66
2023/09/16 12:02:39;;;;;;;2.50;1.90;;;26.10;69.10;;;;;;5020052;28;20183;-64
2023/09/16 12:05:06;;;;;;;3.28;1.80;;;26.00;69.00;;;;;;5023283;28;20257;-64
2023/09/16 12:07:35;;;;;;;2.28;1.50;;;26.00;69.10;;;;;;5029510;28;20199;-64
2023/09/16 12:10:07;;;;;;;2.08;1.88;;;26.00;68.80;;;;;;5026465;28;20202;-64
2023/09/16 12:12:34;;;;;;;1.95;1.80;;;26.00;69.30;;;;;;5031059;28;20528;-64
2023/09/16 12:15:02;;;;;;;2.13;1.67;;;25.90;69.30;;;;;;5027733;28;20214;-64
2023/09/16 12:17:29;;;;;;;2.35;1.85;;;25.90;69.50;;;;;;5029032;28;20218;-65
2023/09/16 12:19:57;;;;;;;1.95;1.80;;;26.00;68.90;;;;;;5026942;28;20260;-65
2023/09/16 12:22:24;;;;;;;1.70;1.60;;;25.90;68.20;;;;;;5030008;28;20183;-65
2023/09/16 12:24:53;;;;;;;2.10;1.90;;;25.90;67.70;;;;;;5021720;28;20454;-64
2023/09/16 12:27:25;;;;;;;2.08;1.88;;;25.80;67.30;;;;;;5021744;28;20274;-64
2023/09/16 12:29:52;;;;;;;2.58;1.70;;;25.80;67.80;;;;;;5026878;28;20199;-65
2023/09/16 12:32:21;;;;;;;2.13;1.90;;;25.80;68.20;;;;;;5016060;28;20847;-65
2023/09/16 12:35:04;;;;;;;2.30;1.60;;;25.80;67.90;;;;;;5024213;28;20199;-65
2023/09/16 12:37:32;;;;;;;4.45;1.80;;;25.80;68.20;;;;;;5025277;28;20221;-65
2023/09/16 12:39:59;;;;;;;2.42;1.92;;;25.90;68.00;;;;;;5026311;28;20658;-65
2023/09/16 12:42:29;;;;;;;1.98;1.75;;;26.20;67.90;;;;;;5026789;28;20651;-65
2023/09/16 12:44:56;;;;;;;1.63;1.52;;;26.70;67.20;;;;;;5022619;28;20195;-65
2023/09/16 12:47:24;;;;;;;1.90;1.63;;;27.10;66.60;;;;;;5030820;28;20741;-65
2023/09/16 12:49:51;;;;;;;2.65;2.00;;;27.40;65.70;;;;;;5030018;28;20678;-65
2023/09/16 12:52:18;;;;;;;1.63;1.52;;;27.70;66.10;;;;;;5032370;28;20744;-64
2023/09/16 12:54:46;;;;;;;1.70;1.60;;;28.00;65.00;;;;;;5030861;28;20199;-65
2023/09/16 12:57:14;;;;;;;3.88;2.00;;;28.10;64.20;;;;;;5032221;28;20205;-64